Time;durP1;ratioP1;P1;durP2;ratioP2;P2;SDS_P1;SDS_P2;PMS_P1;PMS_P2;Temp;Humidity;BMP_temperature;BMP_pressure;BME280_temperature;BME280_humidity;BME280_pressure;Samples;Min_cycle;Max_cycle;Signal;HPM_P1;HPM_P2
2021/11/02 00:01:21;;;;;;;79.28;44.38;;;9.30;99.90;;;;;;4935812;28;20042;-70
2021/11/02 00:03:48;;;;;;;86.28;47.53;;;9.30;99.90;;;;;;4932644;28;20047;-67
2021/11/02 00:06:15;;;;;;;81.25;45.17;;;9.30;99.90;;;;;;4929617;28;20393;-63
2021/11/02 00:08:42;;;;;;;93.63;50.25;;;9.20;99.90;;;;;;4931538;28;20061;-65
2021/11/02 00:11:09;;;;;;;95.72;48.40;;;9.20;99.90;;;;;;4935036;28;20073;-64
2021/11/02 00:13:39;;;;;;;86.60;46.78;;;9.30;99.90;;;;;;4937017;28;20408;-71
2021/11/02 00:16:10;;;;;;;82.93;41.22;;;9.20;99.90;;;;;;4929908;28;20053;-65
2021/11/02 00:18:44;;;;;;;80.13;45.30;;;9.20;99.90;;;;;;4943507;28;20587;-70
2021/11/02 00:21:12;;;;;;;72.72;44.55;;;9.30;99.90;;;;;;4927087;28;21305;-66
2021/11/02 00:23:40;;;;;;;74.65;43.22;;;9.30;99.90;;;;;;4917557;28;20129;-63
2021/11/02 00:26:10;;;;;;;81.47;44.03;;;9.30;99.90;;;;;;4934492;28;20383;-73
2021/11/02 00:28:38;;;;;;;85.78;44.88;;;9.20;99.90;;;;;;4926435;28;20190;-69
2021/11/02 00:31:05;;;;;;;83.93;44.25;;;9.20;99.90;;;;;;4929990;28;20042;-65
2021/11/02 00:33:33;;;;;;;91.53;47.60;;;9.30;99.90;;;;;;4929993;28;20152;-68
2021/11/02 00:36:00;;;;;;;86.50;46.38;;;9.20;99.90;;;;;;4933604;28;20049;-67
2021/11/02 00:38:27;;;;;;;93.47;48.53;;;9.20;99.90;;;;;;4927014;28;20052;-67
2021/11/02 00:40:54;;;;;;;102.57;49.75;;;9.30;99.90;;;;;;4929803;28;20070;-63
2021/11/02 00:43:24;;;;;;;85.68;48.25;;;9.30;99.90;;;;;;4929619;28;20121;-63
2021/11/02 00:45:51;;;;;;;89.13;45.72;;;9.30;99.90;;;;;;4933241;28;20067;-64
2021/11/02 00:48:28;;;;;;;88.50;44.08;;;9.30;99.90;;;;;;4922985;28;20177;-66
2021/11/02 00:50:55;;;;;;;96.28;48.30;;;9.20;99.90;;;;;;4927984;28;20047;-65
2021/11/02 00:53:23;;;;;;;89.95;47.13;;;9.20;99.90;;;;;;4929524;28;20576;-68
2021/11/02 00:55:50;;;;;;;92.97;46.42;;;9.20;99.90;;;;;;4931122;28;20050;-70
2021/11/02 00:58:19;;;;;;;86.75;44.47;;;9.20;99.90;;;;;;4943541;28;20443;-67
2021/11/02 01:00:47;;;;;;;90.18;48.42;;;9.20;99.90;;;;;;4928463;28;20042;-70
2021/11/02 01:03:15;;;;;;;107.53;50.30;;;9.20;99.90;;;;;;4927449;28;20065;-63
2021/11/02 01:05:42;;;;;;;96.93;48.05;;;9.20;99.90;;;;;;4931665;28;20046;-69
2021/11/02 01:08:12;;;;;;;94.35;47.60;;;9.30;99.90;;;;;;4926021;28;20062;-68
2021/11/02 01:10:46;;;;;;;100.43;50.30;;;9.20;99.90;;;;;;4950152;28;20511;-63
2021/11/02 01:13:14;;;;;;;90.65;45.20;;;9.30;99.90;;;;;;4934146;28;20168;-66
2021/11/02 01:15:42;;;;;;;97.70;47.55;;;9.30;99.90;;;;;;4941760;28;20141;-72
2021/11/02 01:18:09;;;;;;;85.90;46.83;;;9.30;99.90;;;;;;4929412;28;20058;-68
2021/11/02 01:20:37;;;;;;;100.38;44.10;;;9.30;99.90;;;;;;4943614;28;20042;-70
2021/11/02 01:23:06;;;;;;;105.38;46.97;;;9.30;99.90;;;;;;4933201;28;20050;-63
2021/11/02 01:25:33;;;;;;;109.78;49.60;;;9.20;99.90;;;;;;4931837;28;20050;-70
2021/11/02 01:28:04;;;;;;;107.50;48.83;;;9.20;99.90;;;;;;4948521;28;21333;-63
2021/11/02 01:30:37;;;;;;;105.10;50.53;;;9.20;99.90;;;;;;4912515;28;20072;-64
2021/11/02 01:33:06;;;;;;;99.18;48.33;;;9.20;99.90;;;;;;4934355;28;20880;-65
2021/11/02 01:35:37;;;;;;;110.32;50.85;;;9.20;99.90;;;;;;4946491;28;20053;-69
2021/11/02 01:38:05;;;;;;;97.53;45.92;;;9.20;99.90;;;;;;4945203;28;20071;-63
2021/11/02 01:40:33;;;;;;;103.45;51.20;;;9.20;99.90;;;;;;4906323;28;20444;-64
2021/11/02 01:43:00;;;;;;;114.72;50.80;;;9.10;99.90;;;;;;4906224;28;20145;-69
2021/11/02 01:45:28;;;;;;;108.13;49.33;;;9.10;99.90;;;;;;4920718;28;20063;-70
2021/11/02 01:48:00;;;;;;;96.97;45.30;;;9.10;99.90;;;;;;4932855;28;20057;-64
2021/11/02 01:50:57;;;;;;;101.18;48.80;;;9.10;99.90;;;;;;4921376;28;20053;-72
2021/11/02 01:53:24;;;;;;;97.63;45.22;;;9.10;99.90;;;;;;4924127;28;20644;-69
2021/11/02 01:55:58;;;;;;;97.97;49.05;;;9.10;99.90;;;;;;4931275;28;20200;-66
2021/11/02 01:58:25;;;;;;;85.30;46.97;;;9.10;99.90;;;;;;4934244;28;20353;-64
2021/11/02 02:00:59;;;;;;;92.53;45.28;;;9.10;99.90;;;;;;4934907;28;20042;-65
2021/11/02 02:03:52;;;;;;;89.57;43.22;;;9.10;99.90;;;;;;4934141;28;20141;-66
2021/11/02 02:06:38;;;;;;;91.30;45.08;;;9.10;99.90;;;;;;4945658;28;20105;-64
2021/11/02 02:09:05;;;;;;;87.15;43.22;;;9.10;99.90;;;;;;4926316;28;20052;-63
2021/11/02 02:12:05;;;;;;;84.53;45.38;;;9.10;99.90;;;;;;4932785;28;20066;-68
2021/11/02 02:14:39;;;;;;;96.40;47.88;;;9.10;99.90;;;;;;4925219;28;20476;-66
2021/11/02 02:17:17;;;;;;;92.80;46.05;;;9.10;99.90;;;;;;4947578;28;20069;-65
2021/11/02 02:20:03;;;;;;;93.57;48.92;;;9.10;99.90;;;;;;4931143;28;20085;-65
2021/11/02 02:22:56;;;;;;;90.20;47.88;;;9.10;99.90;;;;;;4945607;28;20050;-69
2021/11/02 02:25:42;;;;;;;82.85;42.05;;;9.10;99.90;;;;;;4930404;28;20081;-70
2021/11/02 02:28:28;;;;;;;97.03;49.83;;;9.10;99.90;;;;;;4923451;28;20524;-70
2021/11/02 02:31:04;;;;;;;94.93;46.15;;;9.10;99.90;;;;;;4928672;28;20101;-67
2021/11/02 02:33:41;;;;;;;99.70;45.17;;;9.10;99.90;;;;;;4931953;28;20055;-65
2021/11/02 02:36:09;;;;;;;103.63;47.75;;;9.10;99.90;;;;;;4907421;28;20073;-64
2021/11/02 02:38:55;;;;;;;102.13;46.38;;;9.10;99.90;;;;;;4920027;28;21154;-67
2021/11/02 02:41:24;;;;;;;99.55;48.55;;;9.10;99.90;;;;;;4918964;28;20050;-70
2021/11/02 02:43:52;;;;;;;93.22;44.22;;;9.10;99.90;;;;;;4907073;28;20055;-63
2021/11/02 02:46:21;;;;;;;95.47;43.80;;;9.10;99.90;;;;;;4929443;28;20092;-69
2021/11/02 02:48:49;;;;;;;100.95;47.30;;;9.10;99.90;;;;;;4941526;28;20058;-66
2021/11/02 02:51:17;;;;;;;106.07;48.38;;;9.10;99.90;;;;;;4932905;28;20050;-69
2021/11/02 02:53:50;;;;;;;97.75;48.30;;;9.10;99.90;;;;;;4947268;28;20093;-63
2021/11/02 02:56:18;;;;;;;101.75;47.60;;;9.10;99.90;;;;;;4940446;28;20042;-67
2021/11/02 02:58:49;;;;;;;97.40;47.05;;;9.10;99.90;;;;;;4924582;28;20223;-69
2021/11/02 03:01:19;;;;;;;104.70;44.90;;;9.10;99.90;;;;;;4926593;28;20049;-69
2021/11/02 03:03:56;;;;;;;111.15;46.58;;;9.10;99.90;;;;;;4913875;28;20481;-64
2021/11/02 03:06:26;;;;;;;95.45;45.05;;;9.10;99.90;;;;;;4923829;28;21415;-68
2021/11/02 03:08:55;;;;;;;93.18;43.65;;;9.10;99.90;;;;;;4932382;28;20054;-64
2021/11/02 03:11:30;;;;;;;81.35;42.55;;;9.10;99.90;;;;;;4936619;28;20149;-66
2021/11/02 03:14:02;;;;;;;109.95;47.13;;;9.20;99.90;;;;;;4939169;28;20145;-66
2021/11/02 03:20:44;;;;;;;105.40;45.65;;;9.20;99.90;;;;;;4940508;28;20133;-69
2021/11/02 03:56:15;;;;;;;117.53;49.60;;;9.10;99.90;;;;;;4925322;28;20069;-63
2021/11/02 03:59:09;;;;;;;92.55;46.50;;;9.10;99.90;;;;;;4933037;28;20065;-65
2021/11/02 05:50:37;;;;;;;66.07;40.30;;;9.00;99.90;;;;;;4949166;28;20054;-67
2021/11/02 05:58:29;;;;;;;72.85;41.40;;;9.00;99.90;;;;;;4932289;28;20070;-73
2021/11/02 06:11:30;;;;;;;66.82;40.08;;;9.00;99.90;;;;;;4932250;28;20204;-67
2021/11/02 06:27:42;;;;;;;53.35;37.42;;;9.00;99.90;;;;;;4929913;28;20304;-64
2021/11/02 06:29:16;;;;;;;57.75;37.92;;;9.10;99.90;;;;;;4934028;28;20121;-65
2021/11/02 06:31:53;;;;;;;63.85;40.38;;;9.10;99.90;;;;;;4934485;28;20810;-64
2021/11/02 06:50:33;;;;;;;49.08;34.58;;;9.00;99.90;;;;;;4926105;28;20205;-64
2021/11/02 07:18:12;;;;;;;47.83;35.70;;;9.00;99.90;;;;;;4930487;28;20069;-71
2021/11/02 08:48:04;;;;;;;42.58;29.83;;;9.30;99.90;;;;;;4948611;28;20180;-68
2021/11/02 08:50:49;;;;;;;40.97;32.30;;;9.30;99.90;;;;;;4915407;28;20138;-71
2021/11/02 08:53:17;;;;;;;38.20;29.23;;;9.30;99.90;;;;;;4933689;28;20054;-69
2021/11/02 08:55:44;;;;;;;40.92;30.05;;;9.30;99.90;;;;;;4934778;28;20576;-65
2021/11/02 08:58:11;;;;;;;41.00;29.88;;;9.30;99.90;;;;;;4938134;28;20058;-64
2021/11/02 09:00:40;;;;;;;40.92;30.65;;;9.40;99.90;;;;;;4902015;28;20146;-64
2021/11/02 09:03:21;;;;;;;42.13;30.17;;;9.40;99.90;;;;;;4905156;28;20051;-64
2021/11/02 09:05:55;;;;;;;49.85;31.63;;;9.40;99.90;;;;;;4904383;28;20047;-68
2021/11/02 09:08:24;;;;;;;37.50;29.88;;;9.50;99.90;;;;;;4900443;28;20110;-68
2021/11/02 09:10:51;;;;;;;40.10;30.08;;;9.40;99.90;;;;;;4915843;28;20109;-64
2021/11/02 09:13:22;;;;;;;35.97;27.27;;;9.40;99.90;;;;;;4932248;28;20137;-69
2021/11/02 09:15:51;;;;;;;37.90;29.48;;;9.40;99.90;;;;;;4929831;28;20140;-68
2021/11/02 09:18:20;;;;;;;33.95;27.52;;;9.50;99.90;;;;;;4930038;28;20249;-69
2021/11/02 09:20:47;;;;;;;38.80;28.27;;;9.50;99.90;;;;;;4930642;28;20838;-64
2021/11/02 09:23:13;;;;;;;34.67;26.92;;;9.50;99.90;;;;;;4931088;28;20543;-63
2021/11/02 09:25:40;;;;;;;36.75;28.00;;;9.50;99.90;;;;;;4932883;28;20136;-67
2021/11/02 09:28:07;;;;;;;33.15;25.85;;;9.60;99.90;;;;;;4928336;28;20183;-67
2021/11/02 09:30:34;;;;;;;37.70;27.92;;;9.60;99.90;;;;;;4934705;28;20133;-72
2021/11/02 09:33:01;;;;;;;38.05;27.08;;;9.60;99.90;;;;;;4933103;28;20140;-68
2021/11/02 09:35:31;;;;;;;35.38;27.48;;;9.60;99.90;;;;;;4928502;28;20050;-66
2021/11/02 09:38:14;;;;;;;31.42;25.90;;;9.60;99.90;;;;;;4930025;28;20066;-72
2021/11/02 09:41:24;;;;;;;42.42;29.88;;;9.60;99.90;;;;;;4928546;28;20161;-74
2021/11/02 09:44:24;;;;;;;36.83;29.00;;;9.60;99.90;;;;;;4940237;28;20141;-71
2021/11/02 09:47:37;;;;;;;39.13;29.35;;;9.60;99.90;;;;;;4949872;28;20061;-66
2021/11/02 09:50:18;;;;;;;39.60;26.60;;;9.60;99.90;;;;;;4931562;28;20050;-65
2021/11/02 09:53:10;;;;;;;38.53;27.48;;;9.60;99.90;;;;;;4931383;28;20140;-67
2021/11/02 09:55:59;;;;;;;36.45;29.05;;;9.60;99.90;;;;;;4927822;28;20128;-70
2021/11/02 09:58:38;;;;;;;38.47;28.50;;;9.50;99.90;;;;;;4927180;28;20491;-65
2021/11/02 10:01:23;;;;;;;36.85;27.35;;;9.50;99.90;;;;;;4927542;28;20457;-66
2021/11/02 10:04:30;;;;;;;43.40;27.02;;;9.60;99.90;;;;;;4930547;28;20058;-64
2021/11/02 10:07:00;;;;;;;35.88;25.55;;;9.60;99.90;;;;;;4930543;28;20051;-70
2021/11/02 10:09:50;;;;;;;41.38;28.85;;;9.50;99.90;;;;;;4908096;28;20065;-70
2021/11/02 10:12:23;;;;;;;43.35;28.98;;;9.50;99.90;;;;;;4908224;28;20730;-65
2021/11/02 10:14:57;;;;;;;47.50;31.63;;;9.40;99.90;;;;;;4916968;28;20131;-70
2021/11/02 10:17:37;;;;;;;43.10;29.48;;;9.40;99.90;;;;;;4932929;28;20055;-65
2021/11/02 10:20:36;;;;;;;35.58;27.85;;;9.30;99.90;;;;;;4926167;28;20046;-70
2021/11/02 10:23:22;;;;;;;44.42;30.80;;;9.30;99.90;;;;;;4931204;28;20069;-65
2021/11/02 10:26:07;;;;;;;45.90;29.20;;;9.30;99.90;;;;;;4931554;28;22051;-65
2021/11/02 10:28:59;;;;;;;45.65;30.92;;;9.30;99.90;;;;;;4926948;28;20527;-66
2021/11/02 10:31:52;;;;;;;44.30;30.90;;;9.20;99.90;;;;;;4929986;28;20054;-71
2021/11/02 10:34:33;;;;;;;44.03;31.17;;;9.10;99.90;;;;;;4930762;28;20061;-71
2021/11/02 10:37:31;;;;;;;36.90;28.95;;;9.10;99.90;;;;;;4927103;28;20149;-67
2021/11/02 10:40:11;;;;;;;36.63;29.75;;;9.20;99.90;;;;;;4929665;28;20503;-71
2021/11/02 10:42:56;;;;;;;39.25;30.75;;;9.10;99.90;;;;;;4939956;28;20058;-65
2021/11/02 10:45:29;;;;;;;38.58;30.92;;;9.20;99.90;;;;;;4924009;28;20072;-69
2021/11/02 10:48:11;;;;;;;44.88;30.98;;;9.10;99.90;;;;;;4921690;28;20062;-64
2021/11/02 10:50:45;;;;;;;43.67;32.30;;;9.10;99.90;;;;;;4933500;28;20665;-67
2021/11/02 10:53:28;;;;;;;39.90;27.67;;;9.10;99.90;;;;;;4903193;28;20130;-74
2021/11/02 10:56:10;;;;;;;42.60;28.70;;;9.10;99.90;;;;;;4906425;28;20129;-68
2021/11/02 10:58:51;;;;;;;42.85;30.02;;;9.10;99.90;;;;;;4908800;28;20500;-67
2021/11/02 11:01:21;;;;;;;36.30;29.27;;;9.00;99.90;;;;;;4933617;28;20066;-67
2021/11/02 11:03:49;;;;;;;41.25;32.92;;;9.00;99.90;;;;;;4931122;28;20149;-68
2021/11/02 11:06:16;;;;;;;40.42;29.02;;;9.00;99.90;;;;;;4931344;28;20236;-65
2021/11/02 11:08:46;;;;;;;39.90;31.75;;;9.00;99.90;;;;;;4908591;28;20782;-69
2021/11/02 11:11:17;;;;;;;51.92;30.02;;;9.00;99.90;;;;;;4907031;28;20074;-66
2021/11/02 11:13:47;;;;;;;41.97;32.30;;;9.00;99.90;;;;;;4906212;28;20480;-67
2021/11/02 11:16:19;;;;;;;47.22;34.10;;;9.00;99.90;;;;;;4908390;28;20053;-71
2021/11/02 11:19:11;;;;;;;50.90;34.25;;;9.00;99.90;;;;;;4933078;28;20153;-66
2021/11/02 11:21:38;;;;;;;45.70;32.83;;;9.00;99.90;;;;;;4927473;28;20671;-71
2021/11/02 11:24:33;;;;;;;42.88;31.67;;;8.90;99.90;;;;;;4925878;28;20238;-71
2021/11/02 11:27:05;;;;;;;50.92;32.85;;;8.90;99.90;;;;;;4900647;28;20145;-66
2021/11/02 11:29:43;;;;;;;44.78;32.63;;;9.00;99.90;;;;;;4901197;28;20098;-70
2021/11/02 11:32:13;;;;;;;47.25;32.30;;;9.00;99.90;;;;;;4900447;28;21305;-68
2021/11/02 11:34:43;;;;;;;43.70;32.42;;;9.00;99.90;;;;;;4924961;28;20468;-66
2021/11/02 11:37:13;;;;;;;38.65;30.17;;;9.00;99.90;;;;;;4926922;28;20062;-69
2021/11/02 11:39:44;;;;;;;47.72;34.33;;;9.00;99.90;;;;;;4927861;28;20173;-68
2021/11/02 11:42:15;;;;;;;40.72;32.25;;;8.90;99.90;;;;;;4925996;28;20069;-71
2021/11/02 11:44:48;;;;;;;43.88;29.83;;;8.90;99.90;;;;;;4923601;28;20070;-71
2021/11/02 11:47:22;;;;;;;44.22;30.67;;;9.00;99.90;;;;;;4916049;28;20083;-68
2021/11/02 11:49:50;;;;;;;47.63;36.58;;;9.00;99.90;;;;;;4925167;28;20087;-66
2021/11/02 11:52:24;;;;;;;43.63;33.05;;;9.00;99.90;;;;;;4930862;28;20096;-64
2021/11/02 11:54:54;;;;;;;47.72;32.05;;;9.00;99.90;;;;;;4935722;28;20070;-65
2021/11/02 11:57:33;;;;;;;41.15;32.10;;;9.00;99.90;;;;;;4934057;28;20197;-65
2021/11/02 12:00:04;;;;;;;46.25;31.75;;;9.00;99.90;;;;;;4932849;28;20112;-64
2021/11/02 12:02:49;;;;;;;47.95;32.15;;;9.00;99.90;;;;;;4931625;28;21028;-66
2021/11/02 12:05:17;;;;;;;51.10;33.13;;;9.00;99.90;;;;;;4927213;28;20154;-71
2021/11/02 12:08:07;;;;;;;44.03;34.50;;;9.00;99.90;;;;;;4927767;28;20050;-64
2021/11/02 12:10:37;;;;;;;42.88;30.85;;;9.00;99.90;;;;;;4926548;28;20050;-70
2021/11/02 12:13:07;;;;;;;50.35;34.53;;;9.00;99.90;;;;;;4928546;28;20053;-68
2021/11/02 12:15:49;;;;;;;47.60;31.10;;;9.00;99.90;;;;;;4926502;28;20133;-70
2021/11/02 12:18:19;;;;;;;46.20;35.13;;;9.00;99.90;;;;;;4926584;28;20046;-65
2021/11/02 12:20:50;;;;;;;47.95;33.40;;;8.90;99.90;;;;;;4929180;28;20121;-70
2021/11/02 12:23:30;;;;;;;45.85;33.33;;;8.90;99.90;;;;;;4932357;28;20046;-66
2021/11/02 12:25:58;;;;;;;48.20;33.50;;;8.90;99.90;;;;;;4930446;28;20063;-75
2021/11/02 12:28:45;;;;;;;42.83;31.90;;;8.90;99.90;;;;;;4929630;28;20134;-65
2021/11/02 12:31:18;;;;;;;47.83;33.15;;;8.90;99.90;;;;;;4931693;28;20043;-66
2021/11/02 12:33:50;;;;;;;46.15;32.70;;;8.80;99.90;;;;;;4928872;28;20050;-65
2021/11/02 12:36:18;;;;;;;39.03;29.70;;;8.80;99.90;;;;;;4929022;28;20453;-70
2021/11/02 12:38:45;;;;;;;45.70;33.63;;;8.80;99.90;;;;;;4935947;28;20084;-64
2021/11/02 12:41:24;;;;;;;44.45;33.83;;;8.80;99.90;;;;;;4929551;28;20140;-68
2021/11/02 12:44:04;;;;;;;49.90;34.90;;;8.80;99.90;;;;;;4930719;28;20046;-65
2021/11/02 12:46:33;;;;;;;43.15;32.75;;;8.80;99.90;;;;;;4924766;28;20046;-66
2021/11/02 12:49:04;;;;;;;46.05;33.67;;;8.80;99.90;;;;;;4928070;28;20141;-66
2021/11/02 12:51:38;;;;;;;44.13;31.08;;;8.80;99.90;;;;;;4930122;28;20619;-74
2021/11/02 12:54:12;;;;;;;43.95;32.20;;;8.80;99.90;;;;;;4916756;28;20062;-64
2021/11/02 12:56:42;;;;;;;42.83;30.45;;;8.90;99.90;;;;;;4904100;28;21088;-64
2021/11/02 12:59:18;;;;;;;48.33;35.45;;;8.90;99.90;;;;;;4903092;28;22974;-65
2021/11/02 13:01:48;;;;;;;45.42;36.65;;;8.90;99.90;;;;;;4925807;28;20517;-71
2021/11/02 13:04:17;;;;;;;43.70;32.83;;;8.90;99.90;;;;;;4929451;28;20217;-69
2021/11/02 13:06:51;;;;;;;48.15;35.78;;;8.90;99.90;;;;;;4929848;28;21249;-66
2021/11/02 13:09:23;;;;;;;43.08;33.15;;;8.90;99.90;;;;;;4934253;28;22344;-64
2021/11/02 13:12:07;;;;;;;50.03;35.50;;;8.90;99.90;;;;;;4927075;28;20046;-68
2021/11/02 13:14:45;;;;;;;46.53;33.42;;;8.80;99.90;;;;;;4911374;28;20612;-65
2021/11/02 13:17:16;;;;;;;45.97;31.98;;;8.80;99.90;;;;;;4922182;28;20065;-66
2021/11/02 13:19:47;;;;;;;50.50;34.65;;;8.80;99.90;;;;;;4930325;28;20081;-70
2021/11/02 13:22:20;;;;;;;51.60;38.53;;;8.80;99.90;;;;;;4928955;28;20055;-68
2021/11/02 13:25:07;;;;;;;47.83;35.25;;;8.70;99.90;;;;;;4929730;28;20140;-65
2021/11/02 13:27:40;;;;;;;47.22;33.88;;;8.70;99.90;;;;;;4930526;28;20066;-70
2021/11/02 13:30:34;;;;;;;44.08;33.65;;;8.70;99.90;;;;;;4925877;28;20209;-71
2021/11/02 13:33:17;;;;;;;43.70;33.15;;;8.70;99.90;;;;;;4930598;28;20050;-66
2021/11/02 13:36:04;;;;;;;46.13;32.65;;;8.70;99.90;;;;;;4929452;28;20464;-71
2021/11/02 13:38:38;;;;;;;47.80;36.65;;;8.70;99.90;;;;;;4928112;28;20120;-66
2021/11/02 13:41:09;;;;;;;54.60;34.00;;;8.60;99.90;;;;;;4929164;28;20050;-67
2021/11/02 13:43:41;;;;;;;43.50;32.33;;;8.60;99.90;;;;;;4927544;28;20146;-71
2021/11/02 13:46:13;;;;;;;45.20;33.50;;;8.60;99.90;;;;;;4928353;28;20257;-67
2021/11/02 13:48:41;;;;;;;43.22;33.15;;;8.60;99.90;;;;;;4922553;28;20065;-66
2021/11/02 13:51:11;;;;;;;44.20;33.45;;;8.50;99.90;;;;;;4908466;28;20170;-65
2021/11/02 13:53:39;;;;;;;49.15;32.33;;;8.60;99.90;;;;;;4907709;28;20149;-70
2021/11/02 13:56:09;;;;;;;47.28;33.38;;;8.50;99.90;;;;;;4928523;28;20133;-71
2021/11/02 13:58:38;;;;;;;51.95;34.85;;;8.50;99.90;;;;;;4924402;28;20057;-71
2021/11/02 14:01:12;;;;;;;44.55;32.60;;;8.50;99.90;;;;;;4927442;28;20058;-71
2021/11/02 14:04:05;;;;;;;45.15;34.63;;;8.60;99.90;;;;;;4926917;28;20345;-67
2021/11/02 14:06:36;;;;;;;47.20;34.25;;;8.50;99.90;;;;;;4926725;28;20401;-67
2021/11/02 14:09:08;;;;;;;48.70;35.47;;;8.50;99.90;;;;;;4927856;28;20046;-71
2021/11/02 14:11:36;;;;;;;49.15;34.10;;;8.50;99.90;;;;;;4925251;28;20070;-66
2021/11/02 14:14:07;;;;;;;50.72;36.20;;;8.50;99.90;;;;;;4928453;28;20579;-68
2021/11/02 14:16:38;;;;;;;48.00;35.88;;;8.50;99.90;;;;;;4927352;28;20054;-65
2021/11/02 14:19:38;;;;;;;54.67;36.92;;;8.50;99.90;;;;;;4923036;28;20505;-66
2021/11/02 14:22:06;;;;;;;48.45;34.08;;;8.60;99.90;;;;;;4909424;28;20070;-65
2021/11/02 14:24:40;;;;;;;49.97;34.53;;;8.60;99.90;;;;;;4903803;28;20159;-70
2021/11/02 14:27:10;;;;;;;55.05;35.20;;;8.50;99.90;;;;;;4909529;28;20582;-65
2021/11/02 14:29:43;;;;;;;54.72;36.13;;;8.60;99.90;;;;;;4922401;28;20113;-66
2021/11/02 14:32:11;;;;;;;49.90;34.28;;;8.60;99.90;;;;;;4909765;28;20487;-65
2021/11/02 14:34:38;;;;;;;54.03;38.08;;;8.60;99.90;;;;;;4907685;28;20054;-67
2021/11/02 14:37:15;;;;;;;59.72;38.47;;;8.60;99.90;;;;;;4909355;28;20566;-67
2021/11/02 14:40:05;;;;;;;48.22;35.40;;;8.60;99.90;;;;;;4926179;28;20097;-68
2021/11/02 14:42:49;;;;;;;49.85;35.70;;;8.50;99.90;;;;;;4909353;28;20047;-73
2021/11/02 14:45:36;;;;;;;53.35;36.35;;;8.50;99.90;;;;;;4926381;28;20058;-64
2021/11/02 14:48:27;;;;;;;50.35;37.22;;;8.50;99.90;;;;;;4927306;28;20157;-65
2021/11/02 14:50:59;;;;;;;55.63;37.35;;;8.50;99.90;;;;;;4924619;28;20050;-69
2021/11/02 14:53:35;;;;;;;49.90;36.33;;;8.50;99.90;;;;;;4926859;28;20057;-70
2021/11/02 14:56:29;;;;;;;47.63;37.22;;;8.50;99.90;;;;;;4930743;28;20158;-71
2021/11/02 14:59:02;;;;;;;50.92;38.35;;;8.50;99.90;;;;;;4926481;28;20126;-71
2021/11/02 15:01:38;;;;;;;56.72;38.30;;;8.50;99.90;;;;;;4927643;28;20129;-65
2021/11/02 15:04:28;;;;;;;52.25;37.00;;;8.50;99.90;;;;;;4924329;28;20148;-66
2021/11/02 15:06:57;;;;;;;54.40;39.38;;;8.50;99.90;;;;;;4933744;28;20058;-66
2021/11/02 15:09:29;;;;;;;46.97;36.90;;;8.50;99.90;;;;;;4926062;28;20051;-66
2021/11/02 15:11:55;;;;;;;54.88;37.80;;;8.50;99.90;;;;;;4927295;28;21121;-65
2021/11/02 15:14:28;;;;;;;55.80;40.13;;;8.50;99.90;;;;;;4909219;28;20070;-68
2021/11/02 15:17:01;;;;;;;60.03;41.92;;;8.50;99.90;;;;;;4927375;28;20102;-67
2021/11/02 15:19:41;;;;;;;48.78;36.97;;;8.50;99.90;;;;;;4944097;28;20959;-65
2021/11/02 15:22:16;;;;;;;55.53;39.83;;;8.50;99.90;;;;;;4925064;28;20149;-67
2021/11/02 15:24:50;;;;;;;54.60;36.75;;;8.50;99.90;;;;;;4925684;28;20153;-71
2021/11/02 15:27:21;;;;;;;52.97;36.90;;;8.50;99.90;;;;;;4923912;28;20161;-65
2021/11/02 15:29:54;;;;;;;51.85;37.50;;;8.50;99.90;;;;;;4924906;28;20054;-66
2021/11/02 15:32:23;;;;;;;50.70;39.33;;;8.60;99.90;;;;;;4931325;28;20180;-65
2021/11/02 15:34:57;;;;;;;53.67;41.47;;;8.60;99.90;;;;;;4921722;28;20093;-65
2021/11/02 15:37:29;;;;;;;53.28;39.15;;;8.60;99.90;;;;;;4947157;28;20989;-67
2021/11/02 15:40:00;;;;;;;58.00;39.97;;;8.60;99.90;;;;;;4935886;28;20047;-64
2021/11/02 15:42:27;;;;;;;57.97;40.78;;;8.60;99.90;;;;;;4934674;28;20071;-66
2021/11/02 15:45:03;;;;;;;51.60;39.65;;;8.60;99.90;;;;;;4925344;28;20170;-66
2021/11/02 15:47:37;;;;;;;60.13;40.60;;;8.60;99.90;;;;;;4922384;28;20078;-71
2021/11/02 15:50:25;;;;;;;50.28;38.58;;;8.50;99.90;;;;;;4929304;28;20043;-71
2021/11/02 15:53:02;;;;;;;49.67;36.10;;;8.60;99.90;;;;;;4908454;28;20149;-66
2021/11/02 15:55:30;;;;;;;50.65;37.75;;;8.50;99.90;;;;;;4923798;28;20047;-67
2021/11/02 15:58:03;;;;;;;51.53;37.47;;;8.60;99.90;;;;;;4938212;28;20141;-67
2021/11/02 16:00:43;;;;;;;50.08;37.08;;;8.50;99.90;;;;;;4930050;28;21968;-65
2021/11/02 16:03:12;;;;;;;53.90;36.40;;;8.50;99.90;;;;;;4931627;28;20043;-71
2021/11/02 16:05:42;;;;;;;45.38;36.83;;;8.50;99.90;;;;;;4932856;28;20188;-65
2021/11/02 16:08:13;;;;;;;;;;;8.50;99.90;;;;;;4927806;28;20054;-70
2021/11/02 16:10:41;;;;;;;50.47;38.42;;;8.60;99.90;;;;;;4909726;28;19934;-65
2021/11/02 16:13:10;;;;;;;59.35;41.40;;;8.50;99.90;;;;;;4918700;28;21222;-67
2021/11/02 16:15:39;;;;;;;47.92;38.03;;;8.50;99.90;;;;;;4930270;28;20042;-65
2021/11/02 16:18:31;;;;;;;54.78;38.80;;;8.40;99.90;;;;;;4944978;28;20185;-71
2021/11/02 16:21:00;;;;;;;53.55;37.30;;;8.50;99.90;;;;;;4928675;28;20169;-67
2021/11/02 16:23:38;;;;;;;54.33;39.67;;;8.40;99.90;;;;;;4930783;28;20050;-70
2021/11/02 16:26:17;;;;;;;50.33;37.63;;;8.40;99.90;;;;;;4937716;28;20152;-71
2021/11/02 16:28:45;;;;;;;51.17;38.33;;;8.40;99.90;;;;;;4929715;28;20063;-67
2021/11/02 16:31:22;;;;;;;51.70;39.42;;;8.40;99.90;;;;;;4931528;28;20142;-71
2021/11/02 16:33:50;;;;;;;55.35;41.60;;;8.40;99.90;;;;;;4927861;28;20059;-65
2021/11/02 16:36:28;;;;;;;55.38;38.05;;;8.40;99.90;;;;;;4926122;28;20148;-67
2021/11/02 16:38:57;;;;;;;57.03;40.83;;;8.40;99.90;;;;;;4931185;28;20051;-64
2021/11/02 16:41:31;;;;;;;51.92;37.95;;;8.40;99.90;;;;;;4933624;28;20107;-65
2021/11/02 16:44:05;;;;;;;52.55;37.97;;;8.40;99.90;;;;;;4932298;28;20105;-66
2021/11/02 16:46:35;;;;;;;48.35;36.72;;;8.50;99.90;;;;;;4930963;28;21104;-66
2021/11/02 16:49:07;;;;;;;49.50;37.22;;;8.50;99.90;;;;;;4931149;28;20165;-70
2021/11/02 16:51:46;;;;;;;48.50;37.28;;;8.50;99.90;;;;;;4931292;28;20047;-69
2021/11/02 16:54:15;;;;;;;53.70;34.97;;;8.50;99.90;;;;;;4926384;28;20054;-70
2021/11/02 16:57:21;;;;;;;49.65;37.60;;;8.50;99.90;;;;;;4929759;28;20460;-65
2021/11/02 17:00:04;;;;;;;49.05;36.78;;;8.50;99.90;;;;;;4927897;28;20106;-66
2021/11/02 17:02:38;;;;;;;54.40;39.80;;;8.50;99.90;;;;;;4926510;28;20109;-67
2021/11/02 17:05:20;;;;;;;50.60;38.72;;;8.50;99.90;;;;;;4930513;28;20055;-65
2021/11/02 17:07:50;;;;;;;52.88;37.83;;;8.50;99.90;;;;;;4929667;28;20066;-67
2021/11/02 17:10:23;;;;;;;51.95;38.25;;;8.50;99.90;;;;;;4928147;28;20062;-64
2021/11/02 17:13:03;;;;;;;55.58;39.65;;;8.50;99.90;;;;;;4930618;28;20050;-68
2021/11/02 17:15:33;;;;;;;55.63;39.60;;;8.50;99.90;;;;;;4928545;28;20055;-71
2021/11/02 17:18:01;;;;;;;54.28;38.28;;;8.50;99.90;;;;;;4931048;28;20247;-64
2021/11/02 17:20:28;;;;;;;49.35;37.60;;;8.50;99.90;;;;;;4926239;28;20074;-68
2021/11/02 17:22:56;;;;;;;51.72;38.00;;;8.50;99.90;;;;;;4931606;28;20050;-65
2021/11/02 17:25:23;;;;;;;52.97;36.75;;;8.50;99.90;;;;;;4932179;28;20176;-64
2021/11/02 17:27:52;;;;;;;57.67;37.88;;;8.60;99.90;;;;;;4928665;28;20470;-65
2021/11/02 17:30:27;;;;;;;52.97;39.85;;;8.50;99.90;;;;;;4928096;28;20683;-66
2021/11/02 17:32:55;;;;;;;56.15;37.80;;;8.50;99.90;;;;;;4928711;28;20145;-68
2021/11/02 17:35:23;;;;;;;56.70;36.35;;;8.50;99.90;;;;;;4926215;28;22096;-67
2021/11/02 17:37:54;;;;;;;53.00;37.50;;;8.60;99.90;;;;;;4929978;28;20063;-64
2021/11/02 17:40:22;;;;;;;49.78;35.85;;;8.60;99.90;;;;;;4924755;28;20268;-71
2021/11/02 17:42:52;;;;;;;52.28;36.92;;;8.60;99.90;;;;;;4928384;28;20055;-71
2021/11/02 17:45:20;;;;;;;44.00;33.97;;;8.60;99.90;;;;;;4928032;28;20042;-66
2021/11/02 17:47:51;;;;;;;47.08;34.88;;;8.60;99.90;;;;;;4927972;28;20093;-65
2021/11/02 17:50:29;;;;;;;48.92;35.70;;;8.60;99.90;;;;;;4926566;28;20086;-64
2021/11/02 17:52:57;;;;;;;54.53;37.15;;;8.70;99.90;;;;;;4930023;28;20164;-71
2021/11/02 17:55:25;;;;;;;44.35;34.40;;;8.60;99.90;;;;;;4929548;28;20038;-68
2021/11/02 17:57:54;;;;;;;56.55;39.95;;;8.60;99.90;;;;;;4926914;28;20620;-64
2021/11/02 18:00:24;;;;;;;52.97;38.55;;;8.60;99.90;;;;;;4926542;28;22400;-65
2021/11/02 18:02:53;;;;;;;54.85;38.88;;;8.60;99.90;;;;;;4927220;28;20066;-66
2021/11/02 18:05:26;;;;;;;51.38;37.38;;;8.70;99.90;;;;;;4927766;28;20511;-64
2021/11/02 18:07:55;;;;;;;53.85;37.72;;;8.70;99.90;;;;;;4928525;28;20145;-70
2021/11/02 18:10:23;;;;;;;53.45;37.83;;;8.70;99.90;;;;;;4925895;28;21323;-64
2021/11/02 18:12:51;;;;;;;62.90;39.53;;;8.70;99.90;;;;;;4927237;28;20109;-65
2021/11/02 18:15:18;;;;;;;59.20;38.08;;;8.70;99.90;;;;;;4926844;28;20128;-71